sensor_id;sensor_type;location;lat;lon;timestamp;P1;durP1;ratioP1;P2;durP2;ratioP2
64459;SDS011;50828;53.756;21.140;2023-04-01T00:04:56;56.30;;;16.40;;
64459;SDS011;50828;53.756;21.140;2023-04-01T00:10:05;70.00;;;16.20;;
64459;SDS011;50828;53.756;21.140;2023-04-01T00:15:14;48.90;;;14.50;;
64459;SDS011;50828;53.756;21.140;2023-04-01T00:20:22;35.80;;;11.60;;
64459;SDS011;50828;53.756;21.140;2023-04-01T00:25:31;52.80;;;14.10;;
64459;SDS011;50828;53.756;21.140;2023-04-01T00:30:39;67.90;;;15.40;;
64459;SDS011;50828;53.756;21.140;2023-04-01T00:35:47;45.70;;;13.40;;
64459;SDS011;50828;53.756;21.140;2023-04-01T00:40:57;30.50;;;10.20;;
64459;SDS011;50828;53.756;21.140;2023-04-01T00:46:04;109.70;;;24.20;;
64459;SDS011;50828;53.756;21.140;2023-04-01T00:51:14;51.30;;;15.70;;
64459;SDS011;50828;53.756;21.140;2023-04-01T00:56:27;62.20;;;18.50;;
64459;SDS011;50828;53.756;21.140;2023-04-01T01:01:41;99.60;;;27.60;;
64459;SDS011;50828;53.756;21.140;2023-04-01T01:06:50;56.60;;;18.00;;
64459;SDS011;50828;53.756;21.140;2023-04-01T01:12:07;31.00;;;12.40;;
64459;SDS011;50828;53.756;21.140;2023-04-01T01:17:22;22.50;;;10.60;;
64459;SDS011;50828;53.756;21.140;2023-04-01T01:22:40;31.40;;;12.60;;
64459;SDS011;50828;53.756;21.140;2023-04-01T01:28:00;91.90;;;24.30;;
64459;SDS011;50828;53.756;21.140;2023-04-01T01:33:27;68.60;;;21.20;;
64459;SDS011;50828;53.756;21.140;2023-04-01T01:38:46;35.60;;;14.80;;
64459;SDS011;50828;53.756;21.140;2023-04-01T01:43:56;26.50;;;11.80;;
64459;SDS011;50828;53.756;21.140;2023-04-01T01:49:05;26.70;;;13.10;;
64459;SDS011;50828;53.756;21.140;2023-04-01T01:54:16;50.20;;;15.00;;
64459;SDS011;50828;53.756;21.140;2023-04-01T01:59:24;47.00;;;15.40;;
64459;SDS011;50828;53.756;21.140;2023-04-01T02:04:33;92.80;;;24.50;;
64459;SDS011;50828;53.756;21.140;2023-04-01T02:09:43;74.90;;;21.00;;
64459;SDS011;50828;53.756;21.140;2023-04-01T02:14:52;60.30;;;17.40;;
64459;SDS011;50828;53.756;21.140;2023-04-01T02:20:05;55.10;;;17.00;;
64459;SDS011;50828;53.756;21.140;2023-04-01T02:25:20;138.00;;;27.60;;
64459;SDS011;50828;53.756;21.140;2023-04-01T02:30:32;107.50;;;26.00;;
64459;SDS011;50828;53.756;21.140;2023-04-01T02:35:43;75.60;;;20.50;;
64459;SDS011;50828;53.756;21.140;2023-04-01T02:40:56;58.90;;;17.90;;
64459;SDS011;50828;53.756;21.140;2023-04-01T02:46:06;38.00;;;13.90;;
64459;SDS011;50828;53.756;21.140;2023-04-01T02:51:14;41.40;;;15.90;;
64459;SDS011;50828;53.756;21.140;2023-04-01T02:56:23;36.40;;;17.00;;
64459;SDS011;50828;53.756;21.140;2023-04-01T03:01:32;42.30;;;18.00;;
64459;SDS011;50828;53.756;21.140;2023-04-01T03:06:40;50.50;;;19.80;;
64459;SDS011;50828;53.756;21.140;2023-04-01T03:11:49;43.00;;;18.60;;
64459;SDS011;50828;53.756;21.140;2023-04-01T03:16:57;30.50;;;14.60;;
64459;SDS011;50828;53.756;21.140;2023-04-01T03:22:05;26.10;;;13.40;;
64459;SDS011;50828;53.756;21.140;2023-04-01T03:27:13;24.90;;;13.00;;
64459;SDS011;50828;53.756;21.140;2023-04-01T03:32:22;21.60;;;12.90;;
64459;SDS011;50828;53.756;21.140;2023-04-01T03:37:32;28.40;;;13.10;;
64459;SDS011;50828;53.756;21.140;2023-04-01T03:42:40;24.80;;;12.40;;
64459;SDS011;50828;53.756;21.140;2023-04-01T03:47:49;28.40;;;13.90;;
64459;SDS011;50828;53.756;21.140;2023-04-01T03:52:58;24.30;;;13.60;;
64459;SDS011;50828;53.756;21.140;2023-04-01T03:58:07;30.20;;;13.90;;
64459;SDS011;50828;53.756;21.140;2023-04-01T04:03:16;28.40;;;15.20;;
64459;SDS011;50828;53.756;21.140;2023-04-01T04:08:25;30.90;;;14.80;;
64459;SDS011;50828;53.756;21.140;2023-04-01T04:13:33;37.40;;;20.10;;
64459;SDS011;50828;53.756;21.140;2023-04-01T04:18:42;36.80;;;18.60;;
64459;SDS011;50828;53.756;21.140;2023-04-01T04:23:51;27.70;;;14.20;;
64459;SDS011;50828;53.756;21.140;2023-04-01T04:28:59;24.30;;;12.10;;
64459;SDS011;50828;53.756;21.140;2023-04-01T04:34:08;23.40;;;10.90;;
64459;SDS011;50828;53.756;21.140;2023-04-01T04:39:16;23.50;;;10.50;;
64459;SDS011;50828;53.756;21.140;2023-04-01T04:44:26;22.00;;;10.00;;
64459;SDS011;50828;53.756;21.140;2023-04-01T04:49:34;22.70;;;10.10;;
64459;SDS011;50828;53.756;21.140;2023-04-01T04:54:44;17.80;;;8.30;;
64459;SDS011;50828;53.756;21.140;2023-04-01T04:59:52;18.20;;;8.20;;
64459;SDS011;50828;53.756;21.140;2023-04-01T05:05:20;13.90;;;7.40;;
64459;SDS011;50828;53.756;21.140;2023-04-01T05:10:28;17.30;;;7.70;;
64459;SDS011;50828;53.756;21.140;2023-04-01T05:15:37;16.20;;;7.50;;
64459;SDS011;50828;53.756;21.140;2023-04-01T05:20:49;21.80;;;11.20;;
64459;SDS011;50828;53.756;21.140;2023-04-01T05:25:59;35.30;;;20.90;;
64459;SDS011;50828;53.756;21.140;2023-04-01T05:31:12;21.80;;;12.20;;
64459;SDS011;50828;53.756;21.140;2023-04-01T05:36:22;14.10;;;7.90;;
64459;SDS011;50828;53.756;21.140;2023-04-01T05:41:31;15.60;;;8.10;;
64459;SDS011;50828;53.756;21.140;2023-04-01T05:46:41;13.90;;;6.60;;
64459;SDS011;50828;53.756;21.140;2023-04-01T05:51:55;12.80;;;6.40;;
64459;SDS011;50828;53.756;21.140;2023-04-01T05:57:04;11.20;;;6.00;;
64459;SDS011;50828;53.756;21.140;2023-04-01T06:02:12;12.70;;;5.40;;
64459;SDS011;50828;53.756;21.140;2023-04-01T06:07:22;12.70;;;5.10;;
64459;SDS011;50828;53.756;21.140;2023-04-01T06:12:33;13.50;;;6.00;;
64459;SDS011;50828;53.756;21.140;2023-04-01T06:18:07;183.50;;;59.80;;
64459;SDS011;50828;53.756;21.140;2023-04-01T06:23:35;486.40;;;175.70;;
64459;SDS011;50828;53.756;21.140;2023-04-01T06:34:50;185.10;;;70.70;;
64459;SDS011;50828;53.756;21.140;2023-04-01T06:40:31;82.50;;;36.60;;
64459;SDS011;50828;53.756;21.140;2023-04-01T06:46:00;47.00;;;21.60;;
64459;SDS011;50828;53.756;21.140;2023-04-01T06:51:46;18.20;;;8.40;;
64459;SDS011;50828;53.756;21.140;2023-04-01T06:57:28;13.30;;;6.00;;
64459;SDS011;50828;53.756;21.140;2023-04-01T07:02:41;35.40;;;10.60;;
64459;SDS011;50828;53.756;21.140;2023-04-01T07:07:59;20.00;;;7.30;;
64459;SDS011;50828;53.756;21.140;2023-04-01T07:13:12;44.90;;;13.20;;
64459;SDS011;50828;53.756;21.140;2023-04-01T07:18:30;93.90;;;24.60;;
64459;SDS011;50828;53.756;21.140;2023-04-01T07:23:44;67.70;;;18.40;;
64459;SDS011;50828;53.756;21.140;2023-04-01T07:29:14;44.40;;;12.10;;
64459;SDS011;50828;53.756;21.140;2023-04-01T07:34:29;32.00;;;9.60;;
64459;SDS011;50828;53.756;21.140;2023-04-01T07:39:48;24.30;;;7.90;;
64459;SDS011;50828;53.756;21.140;2023-04-01T07:45:14;40.40;;;9.50;;
64459;SDS011;50828;53.756;21.140;2023-04-01T07:50:31;52.60;;;13.10;;
64459;SDS011;50828;53.756;21.140;2023-04-01T07:55:49;27.80;;;8.30;;
64459;SDS011;50828;53.756;21.140;2023-04-01T08:01:11;77.70;;;18.20;;
64459;SDS011;50828;53.756;21.140;2023-04-01T08:06:27;115.00;;;29.70;;
64459;SDS011;50828;53.756;21.140;2023-04-01T08:11:43;59.00;;;21.90;;
64459;SDS011;50828;53.756;21.140;2023-04-01T08:17:22;40.40;;;15.30;;
64459;SDS011;50828;53.756;21.140;2023-04-01T08:22:39;54.10;;;17.10;;
64459;SDS011;50828;53.756;21.140;2023-04-01T08:27:59;70.50;;;17.90;;
64459;SDS011;50828;53.756;21.140;2023-04-01T08:33:17;145.40;;;36.70;;
64459;SDS011;50828;53.756;21.140;2023-04-01T08:38:38;99.30;;;26.10;;
64459;SDS011;50828;53.756;21.140;2023-04-01T08:43:59;57.60;;;16.10;;
64459;SDS011;50828;53.756;21.140;2023-04-01T08:49:32;147.30;;;38.30;;
64459;SDS011;50828;53.756;21.140;2023-04-01T09:00:52;205.90;;;55.70;;
64459;SDS011;50828;53.756;21.140;2023-04-01T09:06:28;221.50;;;57.10;;
64459;SDS011;50828;53.756;21.140;2023-04-01T09:11:45;98.00;;;29.60;;
64459;SDS011;50828;53.756;21.140;2023-04-01T09:22:46;231.40;;;60.30;;
64459;SDS011;50828;53.756;21.140;2023-04-01T09:28:09;338.40;;;78.70;;
64459;SDS011;50828;53.756;21.140;2023-04-01T09:39:32;192.60;;;51.90;;
64459;SDS011;50828;53.756;21.140;2023-04-01T09:44:44;251.90;;;61.70;;
64459;SDS011;50828;53.756;21.140;2023-04-01T09:55:38;150.60;;;41.70;;
64459;SDS011;50828;53.756;21.140;2023-04-01T10:01:23;117.10;;;28.80;;
64459;SDS011;50828;53.756;21.140;2023-04-01T10:06:59;107.60;;;32.10;;
64459;SDS011;50828;53.756;21.140;2023-04-01T10:23:58;131.00;;;44.70;;
64459;SDS011;50828;53.756;21.140;2023-04-01T10:29:44;115.10;;;40.10;;
64459;SDS011;50828;53.756;21.140;2023-04-01T10:47:20;131.20;;;39.60;;
64459;SDS011;50828;53.756;21.140;2023-04-01T11:11:07;226.60;;;61.50;;
64459;SDS011;50828;53.756;21.140;2023-04-01T11:16:44;227.80;;;58.60;;
64459;SDS011;50828;53.756;21.140;2023-04-01T11:22:11;235.60;;;58.70;;
64459;SDS011;50828;53.756;21.140;2023-04-01T11:27:33;306.60;;;76.30;;
64459;SDS011;50828;53.756;21.140;2023-04-01T11:32:56;219.20;;;56.30;;
64459;SDS011;50828;53.756;21.140;2023-04-01T11:38:13;141.00;;;37.20;;
64459;SDS011;50828;53.756;21.140;2023-04-01T11:43:34;343.40;;;77.80;;
64459;SDS011;50828;53.756;21.140;2023-04-01T11:49:23;408.30;;;98.40;;
64459;SDS011;50828;53.756;21.140;2023-04-01T11:54:54;326.00;;;70.80;;
64459;SDS011;50828;53.756;21.140;2023-04-01T12:00:16;247.50;;;60.50;;
64459;SDS011;50828;53.756;21.140;2023-04-01T12:05:39;265.70;;;62.40;;
64459;SDS011;50828;53.756;21.140;2023-04-01T12:10:52;167.40;;;49.30;;
64459;SDS011;50828;53.756;21.140;2023-04-01T12:16:07;137.80;;;42.70;;
64459;SDS011;50828;53.756;21.140;2023-04-01T12:21:26;205.20;;;55.00;;
64459;SDS011;50828;53.756;21.140;2023-04-01T12:26:54;133.50;;;39.90;;
64459;SDS011;50828;53.756;21.140;2023-04-01T12:32:09;140.50;;;43.60;;
64459;SDS011;50828;53.756;21.140;2023-04-01T12:37:28;77.70;;;26.10;;
64459;SDS011;50828;53.756;21.140;2023-04-01T12:42:51;50.60;;;18.90;;
64459;SDS011;50828;53.756;21.140;2023-04-01T12:48:22;37.70;;;16.70;;
64459;SDS011;50828;53.756;21.140;2023-04-01T12:53:46;32.50;;;15.30;;
64459;SDS011;50828;53.756;21.140;2023-04-01T12:59:16;24.00;;;12.70;;
64459;SDS011;50828;53.756;21.140;2023-04-01T13:10:05;20.80;;;11.50;;
64459;SDS011;50828;53.756;21.140;2023-04-01T13:15:23;32.30;;;13.60;;
64459;SDS011;50828;53.756;21.140;2023-04-01T13:20:36;43.50;;;17.80;;
64459;SDS011;50828;53.756;21.140;2023-04-01T13:26:00;36.70;;;17.60;;
64459;SDS011;50828;53.756;21.140;2023-04-01T13:31:24;24.30;;;12.90;;
64459;SDS011;50828;53.756;21.140;2023-04-01T13:36:40;20.60;;;11.60;;
64459;SDS011;50828;53.756;21.140;2023-04-01T13:41:58;14.70;;;8.40;;
64459;SDS011;50828;53.756;21.140;2023-04-01T13:47:27;9.10;;;5.20;;
64459;SDS011;50828;53.756;21.140;2023-04-01T13:58:27;19.20;;;10.40;;
64459;SDS011;50828;53.756;21.140;2023-04-01T14:15:25;22.50;;;14.00;;
64459;SDS011;50828;53.756;21.140;2023-04-01T14:20:45;22.90;;;12.80;;
64459;SDS011;50828;53.756;21.140;2023-04-01T14:37:11;6.20;;;3.60;;
64459;SDS011;50828;53.756;21.140;2023-04-01T14:42:41;6.30;;;3.40;;
64459;SDS011;50828;53.756;21.140;2023-04-01T14:48:03;8.50;;;5.30;;
64459;SDS011;50828;53.756;21.140;2023-04-01T14:53:25;6.30;;;3.70;;
64459;SDS011;50828;53.756;21.140;2023-04-01T14:58:45;4.70;;;3.00;;
64459;SDS011;50828;53.756;21.140;2023-04-01T15:03:56;5.40;;;3.20;;
64459;SDS011;50828;53.756;21.140;2023-04-01T15:09:12;5.50;;;3.40;;
64459;SDS011;50828;53.756;21.140;2023-04-01T15:14:33;6.90;;;3.90;;
64459;SDS011;50828;53.756;21.140;2023-04-01T15:19:56;7.00;;;3.60;;
64459;SDS011;50828;53.756;21.140;2023-04-01T15:25:22;5.10;;;3.40;;
64459;SDS011;50828;53.756;21.140;2023-04-01T15:30:46;5.70;;;3.70;;
64459;SDS011;50828;53.756;21.140;2023-04-01T15:36:02;24.90;;;9.90;;
64459;SDS011;50828;53.756;21.140;2023-04-01T15:41:20;42.50;;;15.50;;
64459;SDS011;50828;53.756;21.140;2023-04-01T15:46:39;28.30;;;12.30;;
64459;SDS011;50828;53.756;21.140;2023-04-01T15:52:05;24.20;;;10.10;;
64459;SDS011;50828;53.756;21.140;2023-04-01T15:57:18;30.20;;;11.30;;
64459;SDS011;50828;53.756;21.140;2023-04-01T16:02:35;23.40;;;9.20;;
64459;SDS011;50828;53.756;21.140;2023-04-01T16:07:52;12.50;;;5.80;;
64459;SDS011;50828;53.756;21.140;2023-04-01T16:13:17;18.30;;;6.70;;
64459;SDS011;50828;53.756;21.140;2023-04-01T16:18:37;29.40;;;13.70;;
64459;SDS011;50828;53.756;21.140;2023-04-01T16:24:02;44.80;;;19.30;;
64459;SDS011;50828;53.756;21.140;2023-04-01T16:29:20;33.50;;;14.40;;
64459;SDS011;50828;53.756;21.140;2023-04-01T16:34:37;36.80;;;14.80;;
64459;SDS011;50828;53.756;21.140;2023-04-01T16:39:49;62.00;;;26.20;;
64459;SDS011;50828;53.756;21.140;2023-04-01T16:45:16;71.40;;;25.40;;
64459;SDS011;50828;53.756;21.140;2023-04-01T16:50:30;52.40;;;23.40;;
64459;SDS011;50828;53.756;21.140;2023-04-01T16:55:50;55.30;;;22.20;;
64459;SDS011;50828;53.756;21.140;2023-04-01T17:01:05;42.80;;;18.00;;
64459;SDS011;50828;53.756;21.140;2023-04-01T17:06:21;39.20;;;18.30;;
64459;SDS011;50828;53.756;21.140;2023-04-01T17:11:37;37.30;;;17.20;;
64459;SDS011;50828;53.756;21.140;2023-04-01T17:16:54;51.40;;;19.80;;
64459;SDS011;50828;53.756;21.140;2023-04-01T17:22:11;54.40;;;23.00;;
64459;SDS011;50828;53.756;21.140;2023-04-01T17:27:30;45.20;;;18.40;;
64459;SDS011;50828;53.756;21.140;2023-04-01T17:32:48;31.50;;;14.20;;
64459;SDS011;50828;53.756;21.140;2023-04-01T17:38:08;29.80;;;13.50;;
64459;SDS011;50828;53.756;21.140;2023-04-01T17:43:26;29.40;;;12.00;;
64459;SDS011;50828;53.756;21.140;2023-04-01T17:48:45;31.70;;;12.50;;
64459;SDS011;50828;53.756;21.140;2023-04-01T17:53:59;23.80;;;10.30;;
64459;SDS011;50828;53.756;21.140;2023-04-01T17:59:22;20.20;;;9.50;;
64459;SDS011;50828;53.756;21.140;2023-04-01T18:04:40;19.60;;;9.40;;
64459;SDS011;50828;53.756;21.140;2023-04-01T18:10:01;20.30;;;9.50;;
64459;SDS011;50828;53.756;21.140;2023-04-01T18:15:24;24.20;;;9.30;;
64459;SDS011;50828;53.756;21.140;2023-04-01T18:20:39;23.40;;;10.20;;
64459;SDS011;50828;53.756;21.140;2023-04-01T18:26:04;30.40;;;11.60;;
64459;SDS011;50828;53.756;21.140;2023-04-01T18:31:17;31.30;;;12.80;;
64459;SDS011;50828;53.756;21.140;2023-04-01T18:36:33;27.20;;;12.00;;
64459;SDS011;50828;53.756;21.140;2023-04-01T18:41:51;24.50;;;11.10;;
64459;SDS011;50828;53.756;21.140;2023-04-01T18:47:07;55.20;;;19.90;;
64459;SDS011;50828;53.756;21.140;2023-04-01T18:52:22;29.30;;;12.60;;
64459;SDS011;50828;53.756;21.140;2023-04-01T18:57:40;16.10;;;8.60;;
64459;SDS011;50828;53.756;21.140;2023-04-01T19:02:52;15.20;;;7.40;;
64459;SDS011;50828;53.756;21.140;2023-04-01T19:08:14;16.00;;;7.50;;
64459;SDS011;50828;53.756;21.140;2023-04-01T19:13:26;13.50;;;6.40;;
64459;SDS011;50828;53.756;21.140;2023-04-01T19:18:47;11.20;;;6.40;;
64459;SDS011;50828;53.756;21.140;2023-04-01T19:29:47;12.00;;;6.30;;
64459;SDS011;50828;53.756;21.140;2023-04-01T19:35:06;12.10;;;6.30;;
64459;SDS011;50828;53.756;21.140;2023-04-01T19:45:57;18.70;;;8.80;;
64459;SDS011;50828;53.756;21.140;2023-04-01T19:51:13;26.00;;;10.10;;
64459;SDS011;50828;53.756;21.140;2023-04-01T19:56:30;19.00;;;10.30;;
64459;SDS011;50828;53.756;21.140;2023-04-01T20:01:46;23.30;;;11.20;;
64459;SDS011;50828;53.756;21.140;2023-04-01T20:06:59;21.90;;;10.70;;
64459;SDS011;50828;53.756;21.140;2023-04-01T20:12:13;22.90;;;11.60;;
64459;SDS011;50828;53.756;21.140;2023-04-01T20:17:31;21.80;;;10.60;;
64459;SDS011;50828;53.756;21.140;2023-04-01T20:23:02;27.50;;;12.30;;
64459;SDS011;50828;53.756;21.140;2023-04-01T20:28:28;25.90;;;11.10;;
64459;SDS011;50828;53.756;21.140;2023-04-01T20:33:50;24.80;;;11.80;;
64459;SDS011;50828;53.756;21.140;2023-04-01T20:39:21;24.40;;;11.20;;
64459;SDS011;50828;53.756;21.140;2023-04-01T20:44:46;27.00;;;11.70;;
64459;SDS011;50828;53.756;21.140;2023-04-01T20:50:06;25.80;;;11.40;;
64459;SDS011;50828;53.756;21.140;2023-04-01T20:55:33;20.90;;;10.10;;
64459;SDS011;50828;53.756;21.140;2023-04-01T21:01:00;20.70;;;9.80;;
64459;SDS011;50828;53.756;21.140;2023-04-01T21:06:20;25.20;;;12.30;;
64459;SDS011;50828;53.756;21.140;2023-04-01T21:11:43;29.30;;;11.90;;
64459;SDS011;50828;53.756;21.140;2023-04-01T21:16:58;24.50;;;11.20;;
64459;SDS011;50828;53.756;21.140;2023-04-01T21:22:17;29.90;;;12.70;;
64459;SDS011;50828;53.756;21.140;2023-04-01T21:27:52;25.20;;;12.60;;
64459;SDS011;50828;53.756;21.140;2023-04-01T21:33:16;24.30;;;11.90;;
64459;SDS011;50828;53.756;21.140;2023-04-01T21:38:38;21.70;;;10.60;;
64459;SDS011;50828;53.756;21.140;2023-04-01T21:44:08;19.40;;;10.10;;
64459;SDS011;50828;53.756;21.140;2023-04-01T22:00:42;28.10;;;12.70;;
64459;SDS011;50828;53.756;21.140;2023-04-01T22:06:10;23.90;;;12.60;;
64459;SDS011;50828;53.756;21.140;2023-04-01T22:11:29;28.80;;;13.10;;
64459;SDS011;50828;53.756;21.140;2023-04-01T22:16:50;28.60;;;12.60;;
64459;SDS011;50828;53.756;21.140;2023-04-01T22:22:08;26.10;;;12.10;;
64459;SDS011;50828;53.756;21.140;2023-04-01T22:27:26;23.70;;;11.90;;
64459;SDS011;50828;53.756;21.140;2023-04-01T22:32:42;22.20;;;11.00;;
64459;SDS011;50828;53.756;21.140;2023-04-01T22:37:52;27.50;;;12.70;;
64459;SDS011;50828;53.756;21.140;2023-04-01T22:43:10;25.70;;;13.40;;
64459;SDS011;50828;53.756;21.140;2023-04-01T22:48:22;24.40;;;12.20;;
64459;SDS011;50828;53.756;21.140;2023-04-01T22:53:48;21.80;;;11.20;;
64459;SDS011;50828;53.756;21.140;2023-04-01T22:59:06;19.60;;;9.80;;
64459;SDS011;50828;53.756;21.140;2023-04-01T23:04:22;23.60;;;10.10;;
64459;SDS011;50828;53.756;21.140;2023-04-01T23:09:36;20.20;;;9.50;;
64459;SDS011;50828;53.756;21.140;2023-04-01T23:14:46;22.80;;;9.90;;
64459;SDS011;50828;53.756;21.140;2023-04-01T23:19:57;16.80;;;9.00;;
64459;SDS011;50828;53.756;21.140;2023-04-01T23:25:17;15.20;;;7.90;;
64459;SDS011;50828;53.756;21.140;2023-04-01T23:30:48;20.60;;;8.70;;
64459;SDS011;50828;53.756;21.140;2023-04-01T23:35:57;16.70;;;8.00;;
64459;SDS011;50828;53.756;21.140;2023-04-01T23:41:21;17.50;;;8.20;;
64459;SDS011;50828;53.756;21.140;2023-04-01T23:46:31;17.20;;;8.20;;
64459;SDS011;50828;53.756;21.140;2023-04-01T23:51:48;15.70;;;7.90;;
64459;SDS011;50828;53.756;21.140;2023-04-01T23:56:58;14.80;;;8.10;;
